Time;durP1;ratioP1;P1;durP2;ratioP2;P2;SDS_P1;SDS_P2;PMS_P1;PMS_P2;Temp;Humidity;BMP_temperature;BMP_pressure;BME280_temperature;BME280_humidity;BME280_pressure;Samples;Min_cycle;Max_cycle;Signal;HPM_P1;HPM_P2
2021/09/18 00:00:30;;;;;;;0.28;0.28;;;12.10;99.90;;;;;;5050107;28;20173;-74
2021/09/18 00:02:56;;;;;;;0.43;0.43;;;12.00;99.90;;;;;;5050069;28;20181;-74
2021/09/18 00:05:22;;;;;;;0.10;0.10;;;11.70;99.90;;;;;;5065434;28;20188;-75
2021/09/18 00:07:47;;;;;;;0.13;0.13;;;11.60;99.90;;;;;;5050035;28;20204;-75
2021/09/18 00:10:13;;;;;;;0.10;0.10;;;11.50;99.90;;;;;;5065386;28;20240;-74
2021/09/18 00:12:39;;;;;;;0.20;0.20;;;11.60;99.90;;;;;;5049960;28;20165;-75
2021/09/18 00:15:06;;;;;;;0.30;0.30;;;11.80;99.90;;;;;;5065063;28;20205;-75
2021/09/18 00:17:32;;;;;;;0.47;0.30;;;11.80;99.90;;;;;;5049838;28;20196;-74
2021/09/18 00:20:01;;;;;;;0.47;0.47;;;11.90;99.90;;;;;;5049913;28;20153;-74
2021/09/18 00:22:26;;;;;;;0.75;0.57;;;11.90;99.90;;;;;;5049861;28;20238;-74
2021/09/18 00:24:52;;;;;;;0.10;0.10;;;11.60;99.90;;;;;;5049720;28;20169;-74
2021/09/18 00:27:19;;;;;;;2.65;0.17;;;11.30;99.90;;;;;;5064844;28;20197;-74
2021/09/18 00:29:45;;;;;;;0.55;0.55;;;11.30;99.90;;;;;;5049700;28;20162;-74
2021/09/18 00:32:11;;;;;;;12.93;0.45;;;11.30;99.90;;;;;;5049663;28;20154;-74
2021/09/18 00:34:36;;;;;;;0.57;0.57;;;11.30;99.90;;;;;;5049411;28;20201;-74
2021/09/18 00:37:02;;;;;;;0.00;0.00;;;11.30;99.90;;;;;;5048433;28;20164;-74
2021/09/18 00:39:28;;;;;;;0.70;0.70;;;11.30;99.90;;;;;;5047952;28;20172;-74
2021/09/18 00:41:54;;;;;;;0.10;0.10;;;11.30;99.90;;;;;;5048253;28;20154;-74
2021/09/18 00:44:20;;;;;;;0.25;0.25;;;11.30;99.90;;;;;;5048946;28;20213;-74
2021/09/18 00:46:48;;;;;;;0.75;0.75;;;11.30;99.90;;;;;;5049332;28;20572;-74
2021/09/18 00:49:13;;;;;;;1.08;0.73;;;11.30;99.90;;;;;;5049221;28;20178;-74
2021/09/18 00:51:40;;;;;;;0.50;0.40;;;11.30;99.90;;;;;;5064513;28;20228;-74
2021/09/18 00:54:08;;;;;;;0.52;0.52;;;11.30;99.90;;;;;;5050321;28;20180;-74
2021/09/18 00:56:36;;;;;;;0.57;0.57;;;11.30;99.90;;;;;;5049978;28;20677;-74
2021/09/18 00:59:02;;;;;;;0.10;0.10;;;11.20;99.90;;;;;;5064518;28;20204;-74
2021/09/18 01:01:29;;;;;;;0.30;0.20;;;11.10;99.90;;;;;;5049086;28;20181;-74
2021/09/18 01:03:55;;;;;;;0.08;0.08;;;11.20;99.90;;;;;;5049144;28;20355;-74
2021/09/18 01:06:22;;;;;;;0.57;0.43;;;11.10;99.90;;;;;;5048682;28;20193;-74
2021/09/18 01:08:56;;;;;;;0.50;0.50;;;11.00;99.90;;;;;;5044525;28;20228;-74
2021/09/18 01:11:23;;;;;;;0.65;0.65;;;11.00;99.90;;;;;;5048855;28;20172;-74
2021/09/18 01:13:50;;;;;;;0.52;0.52;;;11.00;99.90;;;;;;5047502;28;20188;-74
2021/09/18 01:16:18;;;;;;;0.25;0.25;;;11.00;99.90;;;;;;5048543;28;20284;-74
2021/09/18 01:18:43;;;;;;;0.00;0.00;;;11.00;99.90;;;;;;5047379;28;20219;-73
2021/09/18 01:21:10;;;;;;;0.03;0.03;;;11.00;99.90;;;;;;5047444;28;20611;-73
2021/09/18 01:23:36;;;;;;;0.68;0.68;;;10.90;99.90;;;;;;5047303;28;20172;-74
2021/09/18 01:26:02;;;;;;;1.13;1.13;;;10.90;99.90;;;;;;5048627;28;20157;-73
2021/09/18 01:28:28;;;;;;;0.20;0.20;;;10.80;99.90;;;;;;5048475;28;20197;-73
2021/09/18 01:30:54;;;;;;;0.20;0.20;;;10.90;99.90;;;;;;5048680;28;20181;-74
2021/09/18 01:33:21;;;;;;;0.10;0.10;;;11.00;99.90;;;;;;5048624;28;20173;-74
2021/09/18 01:35:46;;;;;;;1.65;0.43;;;11.00;99.90;;;;;;5048407;28;20248;-74
2021/09/18 01:38:13;;;;;;;0.25;0.20;;;11.00;99.90;;;;;;5048476;28;20189;-74
2021/09/18 01:40:43;;;;;;;0.35;0.35;;;11.00;99.90;;;;;;5048468;28;20208;-74
2021/09/18 01:43:11;;;;;;;0.10;0.10;;;10.80;99.90;;;;;;5048422;28;20160;-74
2021/09/18 01:45:37;;;;;;;1.88;1.02;;;10.80;99.90;;;;;;5048360;28;20176;-73
2021/09/18 01:48:06;;;;;;;0.45;0.25;;;10.80;99.90;;;;;;5048240;28;20193;-73
2021/09/18 01:51:00;;;;;;;1.17;0.65;;;10.80;99.90;;;;;;5046668;28;20232;-73
2021/09/18 01:53:24;;;;;;;0.10;0.10;;;10.90;99.90;;;;;;5047739;28;20235;-73
2021/09/18 01:55:51;;;;;;;0.10;0.10;;;10.90;99.90;;;;;;5046722;28;20224;-74
2021/09/18 01:58:19;;;;;;;0.40;0.40;;;11.00;99.90;;;;;;5048258;28;20259;-74
2021/09/18 02:00:56;;;;;;;0.10;0.10;;;11.00;99.90;;;;;;5046911;28;20192;-74
2021/09/18 02:03:22;;;;;;;0.13;0.13;;;11.00;99.90;;;;;;5048327;28;20158;-74
2021/09/18 02:05:49;;;;;;;0.32;0.32;;;11.00;99.90;;;;;;5047712;28;20295;-73
2021/09/18 02:08:15;;;;;;;0.10;0.10;;;11.00;99.90;;;;;;5048093;28;20189;-74
2021/09/18 02:10:41;;;;;;;5.82;0.95;;;10.90;99.90;;;;;;5048176;28;20166;-73
2021/09/18 02:13:09;;;;;;;0.30;0.30;;;10.80;99.90;;;;;;5048092;28;20599;-73
2021/09/18 02:15:36;;;;;;;1.08;0.40;;;10.70;99.90;;;;;;5047979;28;20224;-73
2021/09/18 02:18:07;;;;;;;0.80;0.80;;;10.70;99.90;;;;;;5046671;28;20197;-73
2021/09/18 02:20:34;;;;;;;0.13;0.13;;;10.60;99.90;;;;;;5046769;28;20191;-73
2021/09/18 02:23:01;;;;;;;0.30;0.30;;;10.70;99.90;;;;;;5048107;28;20678;-72
2021/09/18 02:25:28;;;;;;;0.10;0.10;;;10.70;99.90;;;;;;5048011;28;20165;-73
2021/09/18 02:27:54;;;;;;;0.13;0.13;;;10.70;99.90;;;;;;5046532;28;20201;-73
2021/09/18 02:30:26;;;;;;;1.02;0.43;;;10.70;99.90;;;;;;5048034;28;20176;-74
2021/09/18 02:32:53;;;;;;;0.10;0.10;;;10.60;99.90;;;;;;5047871;28;20157;-73
2021/09/18 02:35:21;;;;;;;0.10;0.10;;;10.70;99.90;;;;;;5046727;28;20227;-74
2021/09/18 02:37:49;;;;;;;0.10;0.10;;;10.70;99.90;;;;;;5046546;28;20197;-74
2021/09/18 02:40:16;;;;;;;0.63;0.63;;;10.50;99.90;;;;;;5048107;28;20180;-73
2021/09/18 02:42:44;;;;;;;0.10;0.10;;;10.40;99.90;;;;;;5048090;28;20223;-73
2021/09/18 02:45:11;;;;;;;0.10;0.10;;;10.40;99.90;;;;;;5046592;28;20173;-73
2021/09/18 02:47:37;;;;;;;0.55;0.55;;;10.30;99.90;;;;;;5046336;28;20178;-73
2021/09/18 02:50:05;;;;;;;0.20;0.20;;;10.30;99.90;;;;;;5052522;28;20242;-74
2021/09/18 02:52:31;;;;;;;0.43;0.43;;;10.30;99.90;;;;;;5067571;28;20176;-74
2021/09/18 02:54:57;;;;;;;2.08;0.52;;;10.60;99.90;;;;;;5050114;28;20261;-75
2021/09/18 02:57:23;;;;;;;0.25;0.25;;;10.70;99.90;;;;;;5068055;28;20161;-73
2021/09/18 02:59:49;;;;;;;0.55;0.45;;;10.80;99.90;;;;;;5049567;28;20203;-74
2021/09/18 03:02:15;;;;;;;0.40;0.40;;;10.70;99.90;;;;;;5049496;28;20176;-74
2021/09/18 03:04:41;;;;;;;0.20;0.20;;;10.60;99.90;;;;;;5068888;28;20266;-74
2021/09/18 03:07:07;;;;;;;0.10;0.10;;;10.40;99.90;;;;;;5069092;28;20157;-73
2021/09/18 03:09:33;;;;;;;0.00;0.00;;;10.40;99.90;;;;;;5068941;28;20197;-73
2021/09/18 03:11:59;;;;;;;0.00;0.00;;;10.60;99.90;;;;;;5051202;28;20165;-73
2021/09/18 03:14:25;;;;;;;1.02;0.93;;;10.50;99.90;;;;;;5069467;28;20165;-73
2021/09/18 03:16:51;;;;;;;0.43;0.43;;;10.30;99.90;;;;;;5070646;28;20183;-74
2021/09/18 03:19:17;;;;;;;0.10;0.10;;;10.50;99.90;;;;;;5072703;28;20185;-74
2021/09/18 03:21:43;;;;;;;0.35;0.35;;;10.30;99.90;;;;;;5072692;28;20179;-73
2021/09/18 03:24:09;;;;;;;0.70;0.70;;;10.30;99.90;;;;;;5072678;28;20153;-73
2021/09/18 03:26:35;;;;;;;0.35;0.35;;;10.40;99.90;;;;;;5054546;28;20168;-74
2021/09/18 03:29:03;;;;;;;0.50;0.50;;;10.40;99.90;;;;;;5072049;28;20296;-74
2021/09/18 03:31:30;;;;;;;0.20;0.20;;;10.30;99.90;;;;;;5070883;28;20157;-74
2021/09/18 03:33:56;;;;;;;0.10;0.10;;;10.10;99.90;;;;;;5052666;28;20181;-73
2021/09/18 03:36:22;;;;;;;0.20;0.20;;;10.20;99.90;;;;;;5052728;28;20208;-73
2021/09/18 03:38:48;;;;;;;1.17;1.17;;;10.20;99.90;;;;;;5070619;28;20248;-73
2021/09/18 03:41:14;;;;;;;0.10;0.10;;;10.00;99.90;;;;;;5070496;28;20201;-74
2021/09/18 03:43:40;;;;;;;0.10;0.10;;;10.10;99.90;;;;;;5070609;28;20231;-73
2021/09/18 03:46:05;;;;;;;0.10;0.10;;;10.20;99.90;;;;;;5070452;28;20228;-74
2021/09/18 03:48:31;;;;;;;0.10;0.10;;;10.00;99.90;;;;;;5070220;28;20203;-74
2021/09/18 03:50:58;;;;;;;5.93;0.73;;;10.10;99.90;;;;;;5052261;28;20247;-74
2021/09/18 03:53:24;;;;;;;0.20;0.20;;;10.30;99.90;;;;;;5070396;28;20160;-74
2021/09/18 03:55:49;;;;;;;0.10;0.10;;;10.30;99.90;;;;;;5052342;28;20703;-74
2021/09/18 03:58:15;;;;;;;0.57;0.57;;;10.20;99.90;;;;;;5070219;28;20200;-74
2021/09/18 04:00:42;;;;;;;0.20;0.20;;;10.10;99.90;;;;;;5052187;28;20168;-74
2021/09/18 04:03:08;;;;;;;0.50;0.50;;;10.00;99.90;;;;;;5052133;28;20222;-74
2021/09/18 04:05:34;;;;;;;0.30;0.30;;;10.00;99.90;;;;;;5070135;28;20168;-74
2021/09/18 04:08:05;;;;;;;0.10;0.10;;;9.90;99.90;;;;;;5069972;28;20184;-73
2021/09/18 04:10:32;;;;;;;0.30;0.30;;;9.90;99.90;;;;;;5070026;28;20176;-74
2021/09/18 04:12:57;;;;;;;0.63;0.63;;;10.00;99.90;;;;;;5070052;28;20192;-74
2021/09/18 04:15:23;;;;;;;1.73;1.00;;;10.10;99.90;;;;;;5069932;28;20219;-74
2021/09/18 04:17:49;;;;;;;3.20;0.43;;;10.20;99.90;;;;;;5051927;28;20204;-74
2021/09/18 04:20:16;;;;;;;0.20;0.20;;;10.20;99.90;;;;;;5069875;28;20172;-74
2021/09/18 04:22:42;;;;;;;0.10;0.10;;;10.10;99.90;;;;;;5069923;28;20168;-74
2021/09/18 04:25:08;;;;;;;0.63;0.63;;;9.90;99.90;;;;;;5051722;28;20179;-74
2021/09/18 04:27:34;;;;;;;0.20;0.20;;;10.00;99.90;;;;;;5051634;28;20249;-73
2021/09/18 04:30:00;;;;;;;0.10;0.10;;;9.80;99.90;;;;;;5068877;28;20161;-75
2021/09/18 04:32:26;;;;;;;0.60;0.60;;;9.90;99.90;;;;;;5051825;28;20183;-73
2021/09/18 04:34:52;;;;;;;0.95;0.95;;;9.90;99.90;;;;;;5069287;28;20212;-73
2021/09/18 04:37:18;;;;;;;0.10;0.10;;;9.90;99.90;;;;;;5069630;28;20161;-73
2021/09/18 04:39:44;;;;;;;0.55;0.55;;;10.10;99.90;;;;;;5051133;28;20196;-73
2021/09/18 04:42:10;;;;;;;0.17;0.17;;;9.90;99.90;;;;;;5051635;28;20192;-73
2021/09/18 04:44:36;;;;;;;0.03;0.03;;;10.00;99.90;;;;;;5069267;28;20231;-74
2021/09/18 04:47:02;;;;;;;1.38;0.38;;;10.00;99.90;;;;;;5051175;28;20192;-73
2021/09/18 04:49:28;;;;;;;0.10;0.10;;;10.10;99.90;;;;;;5068923;28;20184;-74
2021/09/18 04:51:54;;;;;;;0.20;0.20;;;10.10;99.90;;;;;;5069026;28;20218;-73
2021/09/18 04:54:19;;;;;;;0.10;0.10;;;9.90;99.90;;;;;;5050962;28;20172;-73
2021/09/18 04:56:46;;;;;;;0.40;0.40;;;9.90;99.90;;;;;;5068871;28;20196;-73
2021/09/18 04:59:11;;;;;;;0.13;0.13;;;10.10;99.90;;;;;;5050997;28;20189;-74
2021/09/18 05:01:37;;;;;;;0.30;0.30;;;10.00;99.90;;;;;;5050834;28;20194;-74
2021/09/18 05:04:03;;;;;;;1.60;1.50;;;10.00;99.90;;;;;;5050871;28;20179;-74
2021/09/18 05:06:29;;;;;;;0.25;0.25;;;10.20;99.90;;;;;;5050893;28;20199;-75
2021/09/18 05:08:55;;;;;;;0.25;0.25;;;10.40;99.90;;;;;;5050612;28;20203;-74
2021/09/18 05:11:21;;;;;;;0.35;0.35;;;10.50;99.90;;;;;;5068681;28;20298;-73
2021/09/18 05:13:46;;;;;;;0.30;0.30;;;10.60;99.90;;;;;;5068579;28;20168;-74
2021/09/18 05:16:12;;;;;;;0.30;0.30;;;10.80;99.90;;;;;;5068555;28;20197;-74
2021/09/18 05:18:38;;;;;;;0.85;0.70;;;10.80;99.90;;;;;;5050664;28;20291;-74
2021/09/18 05:21:04;;;;;;;0.68;0.68;;;11.20;99.90;;;;;;5068659;28;20229;-74
2021/09/18 05:23:30;;;;;;;1.45;0.30;;;11.50;99.90;;;;;;5068599;28;20180;-74
2021/09/18 05:25:56;;;;;;;17.88;1.33;;;11.70;99.90;;;;;;5068807;28;20169;-75
2021/09/18 05:28:22;;;;;;;1.00;0.50;;;11.90;99.90;;;;;;5069049;28;20231;-74
2021/09/18 05:30:48;;;;;;;0.10;0.10;;;12.20;99.90;;;;;;5050642;28;20177;-75
2021/09/18 05:33:14;;;;;;;0.10;0.10;;;12.50;99.90;;;;;;5068353;28;20181;-74
2021/09/18 05:35:40;;;;;;;0.30;0.30;;;12.60;99.90;;;;;;5050254;28;20212;-74
2021/09/18 05:38:06;;;;;;;0.50;0.45;;;13.00;99.90;;;;;;5068050;28;20281;-74
2021/09/18 05:40:32;;;;;;;0.28;0.28;;;13.30;99.90;;;;;;5067375;28;20657;-74
2021/09/18 05:42:58;;;;;;;0.85;0.30;;;13.00;99.90;;;;;;5068161;28;20183;-74
2021/09/18 05:45:24;;;;;;;0.63;0.55;;;12.70;99.90;;;;;;5068026;28;20196;-75
2021/09/18 05:47:50;;;;;;;2.15;0.85;;;12.70;99.90;;;;;;5050119;28;20608;-74
2021/09/18 05:50:16;;;;;;;0.50;0.50;;;12.90;99.90;;;;;;5067932;28;20282;-74
2021/09/18 05:52:42;;;;;;;0.88;0.88;;;13.00;99.90;;;;;;5068008;28;20187;-75
2021/09/18 05:55:08;;;;;;;0.32;0.32;;;13.10;99.90;;;;;;5049801;28;20200;-74
2021/09/18 05:57:34;;;;;;;0.57;0.57;;;12.90;99.90;;;;;;5049852;28;20221;-74
2021/09/18 06:00:00;;;;;;;0.10;0.10;;;12.40;99.90;;;;;;5049957;28;20263;-74
2021/09/18 06:02:26;;;;;;;0.65;0.65;;;12.10;99.90;;;;;;5067896;28;20587;-75
2021/09/18 06:04:52;;;;;;;0.30;0.30;;;12.00;99.90;;;;;;5049756;28;20213;-75
2021/09/18 06:07:18;;;;;;;0.77;0.77;;;12.00;99.90;;;;;;5067851;28;20296;-75
2021/09/18 06:09:43;;;;;;;0.20;0.20;;;12.10;99.90;;;;;;5067837;28;20192;-74
2021/09/18 06:12:09;;;;;;;5.13;1.27;;;12.20;99.90;;;;;;5067698;28;20160;-74
2021/09/18 06:14:35;;;;;;;0.68;0.68;;;12.20;99.90;;;;;;5067684;28;20173;-74
2021/09/18 06:17:04;;;;;;;0.10;0.10;;;12.30;99.90;;;;;;5049844;28;20573;-75
2021/09/18 06:19:31;;;;;;;3.20;1.42;;;12.40;99.90;;;;;;5067669;28;20207;-74
2021/09/18 06:21:57;;;;;;;0.10;0.10;;;12.70;99.90;;;;;;5067621;28;20149;-74
2021/09/18 06:24:23;;;;;;;0.80;0.65;;;12.90;99.90;;;;;;5067670;28;20157;-74
2021/09/18 06:26:49;;;;;;;0.68;0.68;;;13.10;99.90;;;;;;5044260;28;20188;-73
2021/09/18 06:29:15;;;;;;;0.50;0.50;;;13.50;99.90;;;;;;5067412;28;20223;-73
2021/09/18 06:31:40;;;;;;;0.10;0.10;;;13.80;99.90;;;;;;5067209;28;20164;-75
2021/09/18 06:34:06;;;;;;;0.13;0.13;;;14.20;99.90;;;;;;5067611;28;20156;-75
2021/09/18 06:36:32;;;;;;;2.17;1.50;;;14.60;99.90;;;;;;5067462;28;20250;-75
2021/09/18 06:38:58;;;;;;;0.88;0.80;;;15.70;99.90;;;;;;5066191;28;20196;-74
2021/09/18 06:41:24;;;;;;;0.10;0.10;;;15.60;99.90;;;;;;5049138;28;20203;-75
2021/09/18 06:43:50;;;;;;;0.40;0.40;;;15.30;99.90;;;;;;5066082;28;20164;-75
2021/09/18 06:46:17;;;;;;;0.60;0.60;;;15.40;99.90;;;;;;5066414;28;20211;-75
2021/09/18 06:48:43;;;;;;;0.30;0.30;;;15.50;99.90;;;;;;5067161;28;20233;-75
2021/09/18 06:51:09;;;;;;;0.38;0.38;;;15.80;99.90;;;;;;5065933;28;20240;-75
2021/09/18 06:53:35;;;;;;;0.35;0.35;;;16.30;99.90;;;;;;5071273;28;20171;-75
2021/09/18 06:56:01;;;;;;;0.43;0.43;;;17.30;99.90;;;;;;5053024;28;20212;-75
2021/09/18 06:58:26;;;;;;;0.40;0.40;;;18.40;99.90;;;;;;5069726;28;20688;-75
2021/09/18 07:00:52;;;;;;;0.25;0.25;;;17.50;99.90;;;;;;5070592;28;20257;-74
2021/09/18 07:03:18;;;;;;;0.40;0.40;;;17.70;99.90;;;;;;5070935;28;20165;-75
2021/09/18 07:05:44;;;;;;;0.55;0.55;;;18.00;99.90;;;;;;5052997;28;20176;-75
2021/09/18 07:08:10;;;;;;;0.47;0.47;;;17.30;99.90;;;;;;5052828;28;20606;-74
2021/09/18 07:10:36;;;;;;;0.15;0.15;;;16.90;99.90;;;;;;5047549;28;20238;-74
2021/09/18 07:13:02;;;;;;;0.20;0.20;;;17.10;99.90;;;;;;5051472;28;20227;-75
2021/09/18 07:15:28;;;;;;;0.13;0.13;;;17.80;99.90;;;;;;5070313;28;20200;-75
2021/09/18 07:17:54;;;;;;;0.32;0.32;;;18.20;99.90;;;;;;5086663;28;20157;-75
2021/09/18 07:20:20;;;;;;;1.65;1.55;;;18.40;99.90;;;;;;5072062;28;20159;-75
2021/09/18 07:22:46;;;;;;;0.82;0.20;;;18.70;99.90;;;;;;5088433;28;20188;-75
2021/09/18 07:25:12;;;;;;;0.10;0.10;;;18.50;99.90;;;;;;5070124;28;20168;-75
2021/09/18 07:27:39;;;;;;;3.00;1.30;;;18.60;99.90;;;;;;5070009;28;20186;-75
2021/09/18 07:30:07;;;;;;;1.15;0.75;;;19.50;99.90;;;;;;5086557;28;20164;-75
2021/09/18 07:32:33;;;;;;;0.32;0.32;;;20.70;99.90;;;;;;5072205;28;20180;-76
2021/09/18 07:34:58;;;;;;;0.10;0.10;;;22.10;99.90;;;;;;5053907;28;20208;-75
2021/09/18 07:37:24;;;;;;;0.60;0.60;;;22.90;99.90;;;;;;5052248;28;20215;-75
2021/09/18 07:39:50;;;;;;;4.03;0.35;;;22.70;99.90;;;;;;5070408;28;20157;-75
2021/09/18 07:42:17;;;;;;;0.28;0.28;;;23.20;99.90;;;;;;5068497;28;20263;-75
2021/09/18 07:44:43;;;;;;;0.13;0.13;;;23.50;99.90;;;;;;5066703;28;20193;-74
2021/09/18 07:47:09;;;;;;;0.28;0.28;;;23.60;99.90;;;;;;5043398;28;20191;-75
2021/09/18 07:49:35;;;;;;;0.10;0.10;;;23.60;99.90;;;;;;5041845;28;20198;-74
2021/09/18 07:52:02;;;;;;;0.20;0.20;;;23.60;99.90;;;;;;5050350;28;20188;-75
2021/09/18 07:54:31;;;;;;;0.15;0.15;;;23.80;99.90;;;;;;5047291;28;20160;-77
2021/09/18 07:56:57;;;;;;;1.40;1.30;;;23.80;99.90;;;;;;5070530;28;20307;-75
2021/09/18 07:59:23;;;;;;;0.50;0.50;;;22.50;99.90;;;;;;5052679;28;20164;-75
2021/09/18 08:01:49;;;;;;;0.40;0.32;;;21.60;99.90;;;;;;5047161;28;20697;-75
2021/09/18 08:04:15;;;;;;;2.20;0.52;;;21.40;99.90;;;;;;5047832;28;20165;-75
2021/09/18 08:06:44;;;;;;;0.25;0.25;;;21.10;99.90;;;;;;5083682;28;20202;-74
2021/09/18 08:09:09;;;;;;;0.50;0.50;;;21.40;99.90;;;;;;5071981;28;20172;-74
2021/09/18 08:11:35;;;;;;;0.10;0.10;;;21.70;99.90;;;;;;5071495;28;20183;-74
2021/09/18 08:14:02;;;;;;;0.10;0.10;;;22.90;99.90;;;;;;5088574;28;20186;-74
2021/09/18 08:16:29;;;;;;;0.70;0.70;;;23.40;99.90;;;;;;5089339;28;20526;-74
2021/09/18 08:18:55;;;;;;;0.43;0.43;;;22.70;99.90;;;;;;5076972;28;20172;-75
2021/09/18 08:21:22;;;;;;;0.68;0.52;;;22.50;99.90;;;;;;5051253;28;20180;-75
2021/09/18 08:23:48;;;;;;;0.75;0.40;;;23.10;99.90;;;;;;5068914;28;20160;-75
2021/09/18 08:26:14;;;;;;;0.28;0.20;;;22.50;99.90;;;;;;5051110;28;20552;-75
2021/09/18 08:28:40;;;;;;;1.25;0.30;;;23.10;99.90;;;;;;5067918;28;20263;-76
2021/09/18 08:31:06;;;;;;;0.10;0.10;;;23.50;99.90;;;;;;5051049;28;20174;-74
2021/09/18 08:33:33;;;;;;;2.33;1.30;;;22.70;99.90;;;;;;5068676;28;20196;-74
2021/09/18 08:35:59;;;;;;;0.13;0.13;;;23.30;99.90;;;;;;5050918;28;20196;-74
2021/09/18 08:38:26;;;;;;;0.43;0.43;;;23.70;99.90;;;;;;5068113;28;20163;-75
2021/09/18 08:40:54;;;;;;;0.10;0.10;;;23.80;99.90;;;;;;5068594;28;20160;-74
2021/09/18 08:43:21;;;;;;;0.10;0.10;;;23.30;99.90;;;;;;5068575;28;20199;-74
2021/09/18 08:45:47;;;;;;;0.28;0.28;;;22.80;99.90;;;;;;5068879;28;20629;-75
2021/09/18 08:48:16;;;;;;;0.20;0.20;;;23.30;99.90;;;;;;5068856;28;20188;-73
2021/09/18 08:50:43;;;;;;;0.30;0.30;;;23.30;99.90;;;;;;5068851;28;20227;-74
2021/09/18 08:53:09;;;;;;;0.35;0.35;;;23.80;99.90;;;;;;5068484;28;20251;-72
2021/09/18 08:55:35;;;;;;;0.10;0.10;;;24.40;99.90;;;;;;5068586;28;20192;-71
2021/09/18 08:58:02;;;;;;;0.10;0.10;;;24.40;99.90;;;;;;5051257;28;20179;-72
2021/09/18 09:00:31;;;;;;;0.20;0.20;;;24.70;99.90;;;;;;5050802;28;20229;-71
2021/09/18 09:03:04;;;;;;;0.60;0.60;;;24.10;99.90;;;;;;5050389;28;20202;-73
2021/09/18 09:05:33;;;;;;;0.55;0.47;;;23.60;99.90;;;;;;5050691;28;20180;-72
2021/09/18 09:08:18;;;;;;;0.05;0.05;;;24.40;99.90;;;;;;5069014;28;20161;-71
2021/09/18 09:10:46;;;;;;;0.43;0.40;;;24.00;99.90;;;;;;5068789;28;20206;-71
2021/09/18 09:13:18;;;;;;;0.10;0.10;;;23.40;99.90;;;;;;5068152;28;20188;-72
2021/09/18 09:15:50;;;;;;;0.10;0.10;;;23.00;99.90;;;;;;5050214;28;20287;-71
2021/09/18 09:18:23;;;;;;;1.13;0.68;;;22.50;99.90;;;;;;5068723;28;20247;-72
2021/09/18 09:21:12;;;;;;;0.50;0.50;;;22.80;99.90;;;;;;5085514;28;20160;-73
2021/09/18 09:23:38;;;;;;;0.20;0.20;;;23.40;99.90;;;;;;5070401;28;20159;-71
2021/09/18 09:26:04;;;;;;;0.10;0.10;;;22.80;99.90;;;;;;5088361;28;20182;-72
2021/09/18 09:28:32;;;;;;;0.00;0.00;;;22.90;99.90;;;;;;5070620;28;20172;-72
2021/09/18 09:31:12;;;;;;;0.15;0.15;;;22.80;99.90;;;;;;5073948;28;20206;-72
2021/09/18 09:33:55;;;;;;;0.40;0.40;;;22.80;99.90;;;;;;5068386;28;20289;-71
2021/09/18 09:36:21;;;;;;;0.50;0.47;;;22.60;99.90;;;;;;5050200;28;20187;-72
2021/09/18 09:38:55;;;;;;;0.20;0.20;;;23.00;99.90;;;;;;5067231;28;20480;-72
2021/09/18 09:41:40;;;;;;;0.10;0.10;;;23.50;99.90;;;;;;5050382;28;20212;-72
2021/09/18 09:44:13;;;;;;;0.30;0.30;;;23.20;99.90;;;;;;5050096;28;20180;-72
2021/09/18 09:46:39;;;;;;;0.30;0.30;;;23.70;99.90;;;;;;5049778;28;20257;-72
2021/09/18 09:49:07;;;;;;;0.30;0.30;;;24.00;99.90;;;;;;5068003;28;20207;-71
2021/09/18 09:51:33;;;;;;;0.13;0.13;;;24.60;99.90;;;;;;5049923;28;20241;-72
2021/09/18 09:54:24;;;;;;;0.40;0.40;;;25.30;99.30;;;;;;5049811;28;20176;-72
2021/09/18 09:57:07;;;;;;;0.00;0.00;;;24.50;99.70;;;;;;5047945;28;20241;-72
2021/09/18 09:59:33;;;;;;;0.85;0.85;;;23.80;98.90;;;;;;5050084;28;20174;-72
2021/09/18 10:01:59;;;;;;;0.52;0.40;;;23.60;99.90;;;;;;5068021;28;20152;-74
2021/09/18 10:04:25;;;;;;;0.38;0.35;;;23.90;99.90;;;;;;5050188;28;20173;-72
2021/09/18 10:06:51;;;;;;;0.32;0.32;;;23.70;99.40;;;;;;5076788;28;20218;-72
2021/09/18 10:09:18;;;;;;;0.17;0.17;;;24.20;99.90;;;;;;5067964;28;20152;-73
2021/09/18 10:11:45;;;;;;;0.10;0.10;;;24.60;99.60;;;;;;5049782;28;20176;-72
2021/09/18 10:14:19;;;;;;;0.10;0.10;;;24.70;98.00;;;;;;5066371;28;20186;-71
2021/09/18 10:16:48;;;;;;;1.65;0.90;;;25.70;99.40;;;;;;5064982;28;20219;-72
2021/09/18 10:19:16;;;;;;;0.00;0.00;;;26.10;95.40;;;;;;5066089;28;20168;-71
2021/09/18 10:24:32;;;;;;;0.32;0.32;;;26.80;95.50;;;;;;5067489;28;20637;-72
2021/09/18 10:27:14;;;;;;;0.17;0.17;;;26.40;94.70;;;;;;5069250;28;20172;-73
2021/09/18 10:29:40;;;;;;;0.10;0.10;;;25.90;95.50;;;;;;5071680;28;20156;-73
2021/09/18 10:32:06;;;;;;;0.22;0.22;;;26.60;93.90;;;;;;5053995;28;20508;-72
2021/09/18 10:34:32;;;;;;;0.15;0.15;;;28.40;94.80;;;;;;5053677;28;20180;-72
2021/09/18 10:36:58;;;;;;;0.20;0.20;;;29.50;90.80;;;;;;5071325;28;20612;-73
2021/09/18 10:39:25;;;;;;;0.10;0.10;;;29.40;92.70;;;;;;5071597;28;20156;-73
2021/09/18 10:41:59;;;;;;;0.20;0.20;;;28.70;91.10;;;;;;5071536;28;20212;-73
2021/09/18 10:44:49;;;;;;;0.10;0.10;;;29.00;92.40;;;;;;5071520;28;20148;-73
2021/09/18 10:47:37;;;;;;;0.30;0.30;;;27.30;92.10;;;;;;5070612;28;20204;-72
2021/09/18 10:50:24;;;;;;;0.43;0.43;;;25.90;94.00;;;;;;5070474;28;20286;-73
2021/09/18 10:53:02;;;;;;;0.20;0.20;;;24.70;94.80;;;;;;5053204;28;20182;-73
2021/09/18 10:55:30;;;;;;;0.00;0.00;;;25.00;95.10;;;;;;5053333;28;20201;-72
2021/09/18 10:57:56;;;;;;;0.00;0.00;;;25.90;94.10;;;;;;5070915;28;20710;-72
2021/09/18 11:00:25;;;;;;;0.30;0.30;;;24.70;93.90;;;;;;5070997;28;20160;-72
2021/09/18 11:02:55;;;;;;;0.55;0.40;;;23.10;95.90;;;;;;5071422;28;20646;-72
2021/09/18 11:05:21;;;;;;;0.40;0.40;;;22.40;97.00;;;;;;5053318;28;20164;-73
2021/09/18 11:07:49;;;;;;;0.13;0.13;;;22.40;97.30;;;;;;5070892;28;20210;-72
2021/09/18 11:10:19;;;;;;;0.30;0.30;;;21.80;97.20;;;;;;5053197;28;20221;-71
2021/09/18 11:13:12;;;;;;;6.35;0.50;;;22.00;98.20;;;;;;5071110;28;20209;-73
2021/09/18 11:15:48;;;;;;;0.10;0.10;;;22.10;96.80;;;;;;5067480;28;20218;-72
2021/09/18 11:18:37;;;;;;;0.22;0.22;;;21.90;98.60;;;;;;5052601;28;20187;-71
2021/09/18 11:21:43;;;;;;;0.45;0.32;;;22.30;99.90;;;;;;5069351;28;20190;-71
2021/09/18 11:24:14;;;;;;;0.40;0.40;;;22.40;97.20;;;;;;5067769;28;20176;-74
2021/09/18 11:26:44;;;;;;;0.10;0.10;;;22.80;95.90;;;;;;5068114;28;20643;-71
2021/09/18 11:29:11;;;;;;;0.17;0.17;;;25.00;95.10;;;;;;5070608;28;20188;-74
2021/09/18 11:31:39;;;;;;;0.10;0.10;;;26.20;93.90;;;;;;5070728;28;20199;-72
2021/09/18 11:34:06;;;;;;;0.00;0.00;;;26.20;92.10;;;;;;5052781;28;20169;-71
2021/09/18 11:36:54;;;;;;;0.13;0.13;;;24.60;94.20;;;;;;5069124;28;20214;-71
2021/09/18 11:39:49;;;;;;;0.22;0.22;;;23.80;95.10;;;;;;5068892;28;20184;-72
2021/09/18 11:42:27;;;;;;;0.20;0.20;;;23.10;97.20;;;;;;5052497;28;20160;-73
2021/09/18 11:44:58;;;;;;;0.10;0.10;;;22.80;97.00;;;;;;5070523;28;20179;-72
2021/09/18 11:47:33;;;;;;;0.20;0.20;;;22.70;96.80;;;;;;5052155;28;20544;-72
2021/09/18 11:49:59;;;;;;;0.00;0.00;;;24.40;97.10;;;;;;5069879;28;20208;-72
2021/09/18 11:52:37;;;;;;;0.20;0.20;;;24.70;96.40;;;;;;5052393;28;20236;-72
2021/09/18 11:55:04;;;;;;;0.45;0.45;;;24.40;94.80;;;;;;5070318;28;20184;-72
2021/09/18 11:57:30;;;;;;;0.10;0.10;;;24.40;96.30;;;;;;5070182;28;20175;-72
2021/09/18 12:00:15;;;;;;;0.20;0.20;;;26.10;93.80;;;;;;5052102;28;20203;-73
2021/09/18 12:02:41;;;;;;;0.40;0.40;;;28.30;92.40;;;;;;5051971;28;20172;-72
2021/09/18 12:05:15;;;;;;;0.10;0.10;;;27.20;90.70;;;;;;5051828;28;20175;-71
2021/09/18 12:07:45;;;;;;;1.75;0.20;;;26.10;91.50;;;;;;5051795;28;20172;-71
2021/09/18 12:10:13;;;;;;;0.10;0.10;;;25.00;93.40;;;;;;5069924;28;20191;-71
2021/09/18 12:12:39;;;;;;;0.10;0.10;;;24.40;95.30;;;;;;5069884;28;20156;-72
2021/09/18 12:15:06;;;;;;;0.00;0.00;;;23.80;97.70;;;;;;5049807;28;20211;-72
2021/09/18 12:17:38;;;;;;;0.15;0.15;;;22.90;96.60;;;;;;5051428;28;20575;-73
2021/09/18 12:20:12;;;;;;;0.10;0.10;;;22.10;97.00;;;;;;5049078;28;20192;-72
2021/09/18 12:22:38;;;;;;;0.08;0.08;;;21.90;98.40;;;;;;5049762;28;20187;-72
2021/09/18 12:25:06;;;;;;;0.00;0.00;;;22.00;97.90;;;;;;5051450;28;20160;-73
2021/09/18 12:27:34;;;;;;;0.03;0.03;;;22.00;97.20;;;;;;5069483;28;20601;-71
2021/09/18 12:30:24;;;;;;;0.10;0.10;;;22.00;96.90;;;;;;5051628;28;20341;-71
2021/09/18 12:33:11;;;;;;;0.00;0.00;;;22.10;96.30;;;;;;5069100;28;20215;-74
2021/09/18 12:35:44;;;;;;;0.05;0.05;;;22.40;96.70;;;;;;5067906;28;20203;-72
2021/09/18 12:38:12;;;;;;;0.10;0.10;;;22.50;97.30;;;;;;5050190;28;20164;-72
2021/09/18 12:40:42;;;;;;;0.90;0.52;;;23.00;96.40;;;;;;5069095;28;20164;-73
2021/09/18 12:43:21;;;;;;;1.02;0.17;;;22.90;96.50;;;;;;5051088;28;20165;-73
2021/09/18 12:45:50;;;;;;;0.10;0.10;;;22.70;95.70;;;;;;5069088;28;20315;-72
2021/09/18 12:48:22;;;;;;;0.13;0.13;;;22.50;95.90;;;;;;5068992;28;20187;-72
2021/09/18 12:50:50;;;;;;;0.00;0.00;;;22.30;96.60;;;;;;5068549;28;20269;-72
2021/09/18 12:53:47;;;;;;;0.08;0.08;;;22.20;97.50;;;;;;5051121;28;20168;-72
2021/09/18 12:56:27;;;;;;;0.20;0.20;;;22.80;95.20;;;;;;5049638;28;20222;-72